Time;durP1;ratioP1;P1;durP2;ratioP2;P2;SDS_P1;SDS_P2;PMS_P1;PMS_P2;Temp;Humidity;BMP_temperature;BMP_pressure;BME280_temperature;BME280_humidity;BME280_pressure;Samples;Min_cycle;Max_cycle;Signal;HPM_P1;HPM_P2
2023/04/12 00:02:15;;;;;;;13.68;3.05;;;6.20;99.90;;;;;;5074537;28;20013;-83
2023/04/12 00:04:41;;;;;;;11.10;2.60;;;6.20;99.90;;;;;;5074585;28;20587;-83
2023/04/12 00:07:08;;;;;;;12.90;3.47;;;6.20;99.90;;;;;;5057694;28;20032;-82
2023/04/12 00:09:35;;;;;;;9.30;3.92;;;6.20;99.90;;;;;;5074703;28;20029;-83
2023/04/12 00:12:01;;;;;;;11.10;3.00;;;6.20;99.90;;;;;;5057626;28;20024;-83
2023/04/12 00:14:27;;;;;;;11.60;3.00;;;6.20;99.90;;;;;;5091340;28;20033;-83
2023/04/12 00:16:53;;;;;;;11.23;2.97;;;6.30;99.90;;;;;;5057750;28;20510;-83
2023/04/12 00:19:19;;;;;;;7.68;2.70;;;6.30;99.90;;;;;;5074503;28;20078;-82
2023/04/12 00:21:44;;;;;;;9.30;2.83;;;6.40;99.90;;;;;;5091114;28;20028;-82
2023/04/12 00:24:10;;;;;;;9.20;2.25;;;6.40;99.90;;;;;;5074263;28;20036;-82
2023/04/12 00:26:36;;;;;;;10.05;3.13;;;6.40;99.90;;;;;;5073891;28;20068;-82
2023/04/12 00:29:02;;;;;;;10.45;2.92;;;6.40;99.90;;;;;;5066447;28;20016;-83
2023/04/12 00:31:28;;;;;;;13.30;3.03;;;6.40;99.90;;;;;;5055854;28;20054;-82
2023/04/12 00:34:12;;;;;;;10.23;2.83;;;6.30;99.90;;;;;;5050064;28;20025;-82
2023/04/12 00:36:37;;;;;;;15.23;3.13;;;6.30;99.90;;;;;;5057134;28;20032;-83
2023/04/12 00:39:03;;;;;;;11.40;2.88;;;6.20;99.90;;;;;;5074171;28;20036;-83
2023/04/12 00:41:29;;;;;;;21.08;3.28;;;6.10;99.90;;;;;;5055906;28;20685;-83
2023/04/12 00:43:54;;;;;;;9.32;3.38;;;6.00;99.90;;;;;;5055559;28;20029;-82
2023/04/12 00:46:20;;;;;;;10.20;3.42;;;6.00;99.90;;;;;;5056493;28;20028;-82
2023/04/12 00:48:47;;;;;;;15.50;3.00;;;6.00;99.90;;;;;;5074373;28;20372;-82
2023/04/12 00:51:13;;;;;;;18.58;4.38;;;6.00;99.90;;;;;;5074038;28;20365;-82
2023/04/12 00:53:40;;;;;;;15.57;3.90;;;5.90;99.90;;;;;;5074158;28;20037;-83
2023/04/12 00:56:06;;;;;;;14.80;4.50;;;5.80;99.90;;;;;;5073699;28;20024;-82
2023/04/12 00:58:32;;;;;;;11.07;3.63;;;5.80;99.90;;;;;;5090033;28;20042;-82
2023/04/12 01:00:59;;;;;;;11.18;3.85;;;5.70;99.90;;;;;;5056591;28;20024;-82
2023/04/12 01:03:26;;;;;;;15.75;3.55;;;5.60;99.90;;;;;;5073753;28;20028;-82
2023/04/12 01:06:21;;;;;;;22.90;4.18;;;5.60;99.90;;;;;;5073529;28;20036;-82
2023/04/12 01:08:58;;;;;;;16.45;4.05;;;5.60;99.90;;;;;;5072489;28;20033;-81
2023/04/12 01:11:26;;;;;;;12.40;4.90;;;5.50;99.90;;;;;;5053093;28;20033;-83
2023/04/12 01:14:21;;;;;;;8.18;3.58;;;5.40;99.90;;;;;;5073386;28;20475;-82
2023/04/12 01:16:52;;;;;;;11.02;3.30;;;5.40;99.90;;;;;;5073453;28;20025;-82
2023/04/12 01:19:52;;;;;;;12.52;3.78;;;5.40;99.90;;;;;;5053655;28;20055;-83
2023/04/12 01:22:42;;;;;;;14.48;4.80;;;5.40;99.90;;;;;;5088387;28;20529;-83
2023/04/12 01:25:23;;;;;;;15.60;4.15;;;5.30;99.90;;;;;;5072807;28;20028;-83
2023/04/12 01:28:06;;;;;;;12.88;4.35;;;5.30;99.90;;;;;;5069931;28;20028;-82
2023/04/12 01:30:32;;;;;;;15.15;4.07;;;5.30;99.90;;;;;;5072511;28;20060;-82
2023/04/12 01:33:06;;;;;;;16.65;4.45;;;5.20;99.90;;;;;;5056241;28;20025;-82
2023/04/12 01:35:32;;;;;;;17.48;4.88;;;5.20;99.90;;;;;;5072444;28;20467;-83
2023/04/12 01:37:59;;;;;;;15.02;4.85;;;5.20;99.90;;;;;;5072757;28;20485;-82
2023/04/12 01:40:27;;;;;;;20.55;4.65;;;5.10;99.90;;;;;;5052183;28;20043;-82
2023/04/12 01:43:13;;;;;;;17.10;6.15;;;5.10;99.90;;;;;;5062867;28;20025;-82
2023/04/12 01:45:39;;;;;;;16.25;5.20;;;5.10;99.90;;;;;;5072329;28;20063;-82
2023/04/12 01:48:09;;;;;;;22.02;5.72;;;5.10;99.90;;;;;;5055282;28;20063;-82
2023/04/12 01:51:01;;;;;;;15.03;7.23;;;5.10;99.90;;;;;;5072163;28;20115;-82
2023/04/12 01:53:34;;;;;;;19.75;5.25;;;5.10;99.90;;;;;;5052598;28;20622;-82
2023/04/12 01:56:08;;;;;;;24.02;5.88;;;5.10;99.90;;;;;;5072179;28;20054;-82
2023/04/12 01:58:36;;;;;;;13.27;5.03;;;5.00;99.90;;;;;;5071530;28;20119;-82
2023/04/12 02:01:24;;;;;;;17.63;5.35;;;5.00;99.90;;;;;;5055245;28;20395;-82
2023/04/12 02:03:51;;;;;;;15.43;5.97;;;5.00;99.90;;;;;;5067160;28;20456;-82
2023/04/12 02:06:21;;;;;;;12.93;6.15;;;5.00;99.90;;;;;;5055397;28;20048;-82
2023/04/12 02:08:47;;;;;;;17.03;6.03;;;5.00;99.90;;;;;;5071627;28;20028;-82
2023/04/12 02:11:13;;;;;;;17.65;6.03;;;5.00;99.90;;;;;;5071850;28;20024;-82
2023/04/12 02:13:39;;;;;;;15.55;6.28;;;5.00;99.90;;;;;;5054962;28;20032;-82
2023/04/12 02:16:06;;;;;;;24.63;7.07;;;5.00;99.90;;;;;;5064783;28;20067;-82
2023/04/12 02:18:36;;;;;;;22.15;7.50;;;5.00;99.90;;;;;;5070938;28;20047;-82
2023/04/12 02:21:02;;;;;;;14.48;7.13;;;5.00;99.90;;;;;;5071259;28;20029;-82
2023/04/12 02:23:28;;;;;;;16.27;7.25;;;5.00;99.90;;;;;;5067460;28;20039;-82
2023/04/12 02:25:53;;;;;;;17.77;8.27;;;5.00;99.90;;;;;;5097519;28;20021;-82
2023/04/12 02:28:19;;;;;;;23.35;9.60;;;5.00;99.90;;;;;;5058387;28;20040;-82
2023/04/12 02:30:45;;;;;;;24.30;9.45;;;5.00;99.90;;;;;;5067016;28;20025;-82
2023/04/12 02:33:12;;;;;;;20.23;9.88;;;5.00;99.90;;;;;;5056156;28;20082;-82
2023/04/12 02:35:39;;;;;;;26.80;11.02;;;5.00;99.90;;;;;;5071152;28;20029;-82
2023/04/12 02:38:08;;;;;;;26.30;11.35;;;5.00;99.90;;;;;;5054947;28;20099;-82
2023/04/12 02:40:45;;;;;;;24.30;13.35;;;5.00;99.90;;;;;;5055383;28;20036;-82
2023/04/12 02:43:14;;;;;;;21.52;10.93;;;4.90;99.90;;;;;;5057384;28;20112;-82
2023/04/12 02:45:44;;;;;;;27.00;11.85;;;5.00;99.90;;;;;;5054723;28;20107;-82
2023/04/12 02:48:10;;;;;;;30.05;12.82;;;5.00;99.90;;;;;;5071594;28;20029;-82
2023/04/12 02:50:37;;;;;;;32.63;12.77;;;4.90;99.90;;;;;;5055240;28;20032;-82
2023/04/12 02:53:15;;;;;;;29.25;12.65;;;4.90;99.90;;;;;;5071875;28;20107;-82
2023/04/12 02:55:44;;;;;;;45.90;13.68;;;4.90;99.90;;;;;;5054963;28;20028;-82
2023/04/12 02:58:11;;;;;;;100.93;16.13;;;5.00;99.90;;;;;;5054796;28;20028;-82
2023/04/12 03:00:44;;;;;;;42.30;14.23;;;4.80;99.90;;;;;;5071226;28;20028;-82
2023/04/12 03:03:12;;;;;;;41.40;13.25;;;4.80;99.90;;;;;;5072795;28;20054;-82
2023/04/12 03:05:38;;;;;;;46.33;14.18;;;4.80;99.90;;;;;;5071699;28;20399;-82
2023/04/12 03:08:04;;;;;;;102.75;16.63;;;4.80;99.90;;;;;;5055648;28;20035;-82
2023/04/12 03:10:42;;;;;;;99.25;16.60;;;4.80;99.90;;;;;;5059780;28;20028;-82
2023/04/12 03:13:08;;;;;;;46.05;14.68;;;4.80;99.90;;;;;;5075208;28;20371;-82
2023/04/12 03:15:37;;;;;;;111.80;18.45;;;4.80;99.90;;;;;;5059211;28;20468;-82
2023/04/12 03:18:03;;;;;;;47.80;12.90;;;4.80;99.90;;;;;;5054849;28;20013;-82
2023/04/12 03:20:33;;;;;;;54.78;14.30;;;4.80;99.90;;;;;;5059111;28;20078;-82
2023/04/12 03:23:06;;;;;;;28.38;12.40;;;4.80;99.90;;;;;;5058797;28;20162;-82
2023/04/12 03:25:36;;;;;;;33.53;12.40;;;4.80;99.90;;;;;;5074748;28;20772;-82
2023/04/12 03:28:18;;;;;;;30.45;13.13;;;4.80;99.90;;;;;;5060657;28;20036;-83
2023/04/12 03:30:47;;;;;;;37.88;13.90;;;4.80;99.90;;;;;;5074536;28;20506;-82
2023/04/12 03:33:16;;;;;;;40.47;14.95;;;4.80;99.90;;;;;;5058555;28;20017;-82
2023/04/12 03:35:44;;;;;;;43.70;15.30;;;4.80;99.90;;;;;;5058753;28;20383;-82
2023/04/12 03:38:10;;;;;;;31.58;15.63;;;4.80;99.90;;;;;;5058344;28;20513;-82
2023/04/12 03:40:37;;;;;;;41.15;16.95;;;4.80;99.90;;;;;;5057979;28;20020;-82
2023/04/12 03:43:02;;;;;;;38.67;16.40;;;4.80;99.90;;;;;;5058096;28;20035;-82
2023/04/12 03:45:29;;;;;;;32.80;16.90;;;4.80;99.90;;;;;;5058279;28;20036;-82
2023/04/12 03:47:58;;;;;;;79.45;18.88;;;4.90;99.90;;;;;;5058081;28;20028;-82
2023/04/12 03:50:24;;;;;;;44.58;18.17;;;4.90;99.90;;;;;;5058677;28;20086;-82
2023/04/12 03:52:54;;;;;;;116.30;20.30;;;4.90;99.90;;;;;;5074551;28;20060;-82
2023/04/12 03:55:22;;;;;;;148.82;24.75;;;4.80;99.90;;;;;;5074486;28;20051;-81
2023/04/12 03:57:51;;;;;;;476.30;42.17;;;4.80;99.90;;;;;;5057983;28;20017;-82
2023/04/12 04:00:18;;;;;;;310.40;30.42;;;4.80;99.90;;;;;;5074308;28;20035;-82
2023/04/12 04:02:57;;;;;;;183.38;25.10;;;4.80;99.90;;;;;;5059319;28;20395;-82
2023/04/12 04:05:23;;;;;;;224.15;26.15;;;4.80;99.90;;;;;;5073917;28;20400;-81
2023/04/12 04:07:50;;;;;;;192.80;25.10;;;4.90;99.90;;;;;;5057252;28;20024;-81
2023/04/12 04:10:16;;;;;;;455.30;36.22;;;4.90;99.90;;;;;;5057541;28;20021;-81
2023/04/12 04:12:43;;;;;;;647.53;49.08;;;4.90;99.90;;;;;;5057247;28;20087;-82
2023/04/12 04:15:11;;;;;;;605.15;43.58;;;4.90;99.90;;;;;;5053396;28;20013;-82
2023/04/12 04:17:36;;;;;;;676.85;47.83;;;4.90;99.90;;;;;;5072395;28;20477;-81
2023/04/12 04:20:04;;;;;;;794.28;56.63;;;4.90;99.90;;;;;;5072649;28;20024;-81
2023/04/12 04:22:32;;;;;;;1182.55;81.63;;;4.90;99.90;;;;;;5073691;28;20039;-81
2023/04/12 04:25:01;;;;;;;851.30;58.88;;;4.90;99.90;;;;;;5073775;28;20479;-81
2023/04/12 04:27:29;;;;;;;728.53;52.47;;;4.90;99.90;;;;;;5057293;28;20040;-82
2023/04/12 04:29:58;;;;;;;867.72;59.17;;;4.90;99.90;;;;;;5090655;28;20072;-82
2023/04/12 04:32:25;;;;;;;739.35;54.70;;;4.90;99.90;;;;;;5057185;28;20032;-82
2023/04/12 04:34:58;;;;;;;804.78;57.30;;;4.90;99.90;;;;;;5057411;28;20059;-81
2023/04/12 04:37:30;;;;;;;618.88;45.78;;;5.00;99.90;;;;;;5057491;28;20028;-81
2023/04/12 04:39:57;;;;;;;759.03;60.10;;;5.00;99.90;;;;;;5056749;28;20029;-81
2023/04/12 04:42:24;;;;;;;876.25;62.00;;;5.00;99.90;;;;;;5067767;28;20476;-84
2023/04/12 04:45:04;;;;;;;612.95;45.22;;;5.00;99.90;;;;;;5058705;28;20530;-84
2023/04/12 04:47:35;;;;;;;877.10;63.38;;;5.00;99.90;;;;;;5073641;28;20583;-84
2023/04/12 04:50:01;;;;;;;1015.97;70.95;;;5.00;99.90;;;;;;5073812;28;20047;-83
2023/04/12 04:52:27;;;;;;;1043.65;71.63;;;5.00;99.90;;;;;;5057111;28;20583;-84
2023/04/12 04:54:58;;;;;;;1086.97;75.38;;;5.10;99.90;;;;;;5058239;28;20024;-84
2023/04/12 04:57:30;;;;;;;834.28;59.63;;;5.10;99.90;;;;;;5057961;28;20036;-85
2023/04/12 04:59:56;;;;;;;606.45;46.00;;;5.10;99.90;;;;;;5073316;28;20074;-84
2023/04/12 05:02:21;;;;;;;573.83;43.67;;;5.10;99.90;;;;;;5056839;28;20035;-84
2023/04/12 05:04:47;;;;;;;497.40;38.75;;;5.10;99.90;;;;;;5057263;28;20219;-84
2023/04/12 05:07:17;;;;;;;527.47;44.65;;;5.10;99.90;;;;;;5057010;28;20373;-84
2023/04/12 05:09:45;;;;;;;228.40;26.48;;;5.20;99.90;;;;;;5054945;28;20021;-84
2023/04/12 05:12:11;;;;;;;353.73;34.03;;;5.10;99.90;;;;;;5073263;28;20048;-84
2023/04/12 05:14:38;;;;;;;598.42;44.72;;;5.10;99.90;;;;;;5074581;28;20039;-84
2023/04/12 05:17:06;;;;;;;782.58;59.75;;;5.10;99.90;;;;;;5056176;28;20024;-85
2023/04/12 05:19:31;;;;;;;420.80;34.03;;;5.10;99.90;;;;;;5056745;28;20377;-84
2023/04/12 05:21:57;;;;;;;807.50;60.47;;;5.10;99.90;;;;;;5057105;28;20024;-85
2023/04/12 05:24:23;;;;;;;364.10;33.45;;;5.10;99.90;;;;;;5056736;28;20082;-85
2023/04/12 05:26:49;;;;;;;724.08;57.20;;;5.10;99.90;;;;;;5056149;28;20045;-85
2023/04/12 05:29:16;;;;;;;157.88;26.33;;;5.10;99.90;;;;;;5072756;28;20024;-85
2023/04/12 05:31:43;;;;;;;120.18;22.73;;;5.20;99.90;;;;;;5056262;28;20345;-85
2023/04/12 05:34:16;;;;;;;667.25;49.97;;;5.10;99.90;;;;;;5057415;28;20051;-84
2023/04/12 05:36:50;;;;;;;166.02;22.05;;;5.10;99.90;;;;;;5053866;28;20025;-84
2023/04/12 05:39:16;;;;;;;38.72;14.93;;;5.10;99.90;;;;;;5056991;28;20112;-83
2023/04/12 05:41:41;;;;;;;495.23;38.85;;;5.20;99.90;;;;;;5073049;28;20728;-85
2023/04/12 05:44:07;;;;;;;103.75;20.13;;;5.10;99.90;;;;;;5056189;28;20101;-85
2023/04/12 05:46:35;;;;;;;219.90;24.75;;;5.10;99.90;;;;;;5055996;28;20021;-84
2023/04/12 05:49:02;;;;;;;156.85;20.13;;;5.10;99.90;;;;;;5055766;28;20039;-85
2023/04/12 05:51:28;;;;;;;193.75;21.52;;;5.10;99.90;;;;;;5056130;28;20020;-84
2023/04/12 05:53:54;;;;;;;514.70;38.22;;;5.10;99.90;;;;;;5039161;28;20395;-84
2023/04/12 05:56:37;;;;;;;181.00;21.38;;;5.10;99.90;;;;;;5047071;28;20020;-85
2023/04/12 05:59:04;;;;;;;136.02;18.95;;;5.20;99.90;;;;;;5084309;28;20496;-84
2023/04/12 06:01:33;;;;;;;37.47;16.10;;;5.20;99.90;;;;;;5048458;28;20037;-85
2023/04/12 06:04:01;;;;;;;125.75;17.73;;;5.10;99.90;;;;;;5066231;28;20060;-84
2023/04/12 06:06:28;;;;;;;158.27;21.60;;;5.10;99.90;;;;;;5040247;28;20040;-85
2023/04/12 06:08:59;;;;;;;107.07;19.17;;;5.10;99.90;;;;;;5094270;28;20044;-83
2023/04/12 06:11:27;;;;;;;32.38;14.68;;;5.10;99.90;;;;;;5050094;28;20028;-84
2023/04/12 06:13:54;;;;;;;32.25;13.73;;;5.10;99.90;;;;;;5069716;28;20020;-85
2023/04/12 06:16:20;;;;;;;74.97;16.92;;;5.10;99.90;;;;;;5050527;28;20033;-84
2023/04/12 06:18:46;;;;;;;27.33;13.70;;;5.10;99.90;;;;;;5065537;28;20025;-85
2023/04/12 06:21:12;;;;;;;37.25;15.35;;;5.10;99.90;;;;;;5052650;28;20036;-84
2023/04/12 06:23:41;;;;;;;82.30;16.75;;;5.10;99.90;;;;;;5048545;28;20025;-84
2023/04/12 06:26:08;;;;;;;101.93;18.90;;;5.10;99.90;;;;;;5068850;28;20854;-85
2023/04/12 06:28:33;;;;;;;42.85;15.95;;;5.10;99.90;;;;;;5059165;28;20013;-84
2023/04/12 06:31:00;;;;;;;66.78;15.35;;;5.10;99.90;;;;;;5058362;28;20112;-85
2023/04/12 06:33:29;;;;;;;104.68;16.55;;;5.10;99.90;;;;;;5051448;28;20025;-84
2023/04/12 06:35:56;;;;;;;32.60;14.25;;;5.20;99.90;;;;;;5051416;28;20032;-84
2023/04/12 06:38:21;;;;;;;85.03;15.63;;;5.20;99.90;;;;;;5066341;28;20483;-84
2023/04/12 06:40:47;;;;;;;50.85;14.27;;;5.30;99.90;;;;;;5052708;28;20036;-84
2023/04/12 06:43:17;;;;;;;35.85;14.02;;;5.20;99.90;;;;;;5058352;28;20111;-85
2023/04/12 06:45:44;;;;;;;35.08;14.10;;;5.20;99.90;;;;;;5067461;28;20033;-84
2023/04/12 06:48:10;;;;;;;126.05;17.67;;;5.20;99.90;;;;;;5053121;28;20024;-84
2023/04/12 06:50:36;;;;;;;30.80;12.70;;;5.20;99.90;;;;;;5067434;28;20025;-84
2023/04/12 06:53:02;;;;;;;31.35;11.35;;;5.20;99.90;;;;;;5073305;28;20085;-84
2023/04/12 06:55:28;;;;;;;81.75;15.57;;;5.20;99.90;;;;;;5066470;28;20101;-84
2023/04/12 06:57:54;;;;;;;68.45;14.82;;;5.20;99.90;;;;;;5067103;28;20648;-84
2023/04/12 07:00:20;;;;;;;218.98;20.45;;;5.30;99.90;;;;;;5050364;28;20536;-86
2023/04/12 07:02:46;;;;;;;29.83;13.48;;;5.30;99.90;;;;;;5066628;28;20029;-83
2023/04/12 07:05:12;;;;;;;38.75;12.27;;;5.30;99.90;;;;;;5061450;28;20379;-83
2023/04/12 07:07:38;;;;;;;27.58;13.00;;;5.30;99.90;;;;;;5059423;28;20032;-83
2023/04/12 07:10:05;;;;;;;27.42;12.25;;;5.30;99.90;;;;;;5070067;28;20078;-84
2023/04/12 07:12:31;;;;;;;128.48;17.73;;;5.30;99.90;;;;;;5070782;28;20056;-83
2023/04/12 07:14:57;;;;;;;37.08;13.23;;;5.30;99.90;;;;;;5063513;28;20412;-83
2023/04/12 07:17:25;;;;;;;26.17;11.85;;;5.30;99.90;;;;;;5054458;28;20035;-84
2023/04/12 07:19:55;;;;;;;23.00;12.50;;;5.40;99.90;;;;;;5066263;28;20032;-83
2023/04/12 07:22:21;;;;;;;40.90;14.05;;;5.40;99.90;;;;;;5059222;28;20442;-83
2023/04/12 07:24:48;;;;;;;23.95;12.82;;;5.40;99.90;;;;;;5049303;28;20159;-83
2023/04/12 07:27:14;;;;;;;26.90;12.00;;;5.40;99.90;;;;;;5070237;28;20033;-83
2023/04/12 07:29:40;;;;;;;24.27;11.85;;;5.40;99.90;;;;;;5069641;28;20024;-83
2023/04/12 07:32:07;;;;;;;43.80;14.25;;;5.40;99.90;;;;;;5053078;28;20032;-83
2023/04/12 07:34:33;;;;;;;159.57;20.45;;;5.40;99.90;;;;;;5065716;28;20116;-83
2023/04/12 07:36:59;;;;;;;59.50;14.38;;;5.50;99.90;;;;;;5047449;28;20044;-83
2023/04/12 07:39:26;;;;;;;45.65;15.52;;;5.50;99.90;;;;;;5053194;28;20047;-83
2023/04/12 07:41:51;;;;;;;36.35;14.18;;;5.50;99.90;;;;;;5071331;28;20036;-84
2023/04/12 07:44:17;;;;;;;45.67;14.10;;;5.50;99.90;;;;;;5063610;28;20013;-83
2023/04/12 07:46:43;;;;;;;25.52;13.77;;;5.60;99.90;;;;;;5090591;28;20016;-84
2023/04/12 07:49:11;;;;;;;28.83;14.68;;;5.60;99.90;;;;;;5048900;28;20078;-83
2023/04/12 07:51:37;;;;;;;86.05;16.38;;;5.60;99.90;;;;;;5064557;28;20111;-83
2023/04/12 07:54:03;;;;;;;178.68;22.08;;;5.60;99.90;;;;;;5054980;28;20063;-84
2023/04/12 07:56:29;;;;;;;160.32;21.10;;;5.60;99.90;;;;;;5073478;28;20029;-84
2023/04/12 07:58:55;;;;;;;182.00;22.73;;;5.70;99.90;;;;;;5058897;28;20038;-83
2023/04/12 08:01:22;;;;;;;252.43;23.63;;;5.70;99.90;;;;;;5074820;28;20041;-83
2023/04/12 08:03:47;;;;;;;459.33;34.40;;;5.80;99.90;;;;;;5056120;28;20037;-83
2023/04/12 08:06:13;;;;;;;413.08;30.98;;;5.80;99.90;;;;;;5077754;28;20073;-83
2023/04/12 08:08:39;;;;;;;359.27;32.95;;;5.80;99.90;;;;;;5058858;28;20111;-83
2023/04/12 08:11:05;;;;;;;317.25;31.80;;;5.80;99.90;;;;;;5075868;28;20016;-84
2023/04/12 08:13:32;;;;;;;592.67;41.50;;;5.80;99.90;;;;;;5057816;28;20116;-84
2023/04/12 08:15:58;;;;;;;644.00;48.42;;;5.80;99.90;;;;;;5058647;28;20032;-83
2023/04/12 08:18:24;;;;;;;432.15;33.67;;;5.80;99.90;;;;;;5057972;28;20426;-83
2023/04/12 08:20:49;;;;;;;436.40;38.20;;;5.90;99.90;;;;;;5074463;28;20024;-83
2023/04/12 08:23:15;;;;;;;287.67;29.15;;;5.90;99.90;;;;;;5071997;28;20055;-85
2023/04/12 08:25:41;;;;;;;273.15;25.17;;;5.90;99.90;;;;;;5057895;28;20024;-83
2023/04/12 08:28:07;;;;;;;235.82;24.30;;;5.90;99.90;;;;;;5074977;28;20104;-83
2023/04/12 08:30:57;;;;;;;221.82;25.42;;;5.90;99.90;;;;;;5074827;28;20032;-83
2023/04/12 08:33:23;;;;;;;61.00;15.07;;;5.90;99.90;;;;;;5057434;28;20112;-83
2023/04/12 08:35:49;;;;;;;25.17;12.65;;;6.00;99.90;;;;;;5057638;28;20475;-83
2023/04/12 08:38:15;;;;;;;120.22;17.42;;;6.00;99.90;;;;;;5074727;28;20024;-84
2023/04/12 08:40:46;;;;;;;61.63;16.60;;;6.10;99.90;;;;;;5057965;28;20039;-83
2023/04/12 08:43:12;;;;;;;51.25;14.48;;;6.20;99.90;;;;;;5074600;28;20090;-83
2023/04/12 08:45:38;;;;;;;114.63;19.02;;;6.20;99.90;;;;;;5056499;28;20085;-83
2023/04/12 08:48:04;;;;;;;66.78;14.90;;;6.20;99.90;;;;;;5034176;28;20770;-83
2023/04/12 08:50:31;;;;;;;250.93;24.13;;;6.30;99.90;;;;;;5070711;28;20024;-84
2023/04/12 08:53:00;;;;;;;419.30;36.03;;;6.30;99.90;;;;;;5065413;28;20426;-84
2023/04/12 08:55:25;;;;;;;266.13;25.15;;;6.30;99.90;;;;;;5074395;28;20178;-84
2023/04/12 08:57:54;;;;;;;316.77;31.08;;;6.40;99.90;;;;;;5074103;28;20515;-84
2023/04/12 09:00:21;;;;;;;177.07;19.92;;;6.40;99.90;;;;;;5063629;28;20032;-84
2023/04/12 09:02:47;;;;;;;169.02;20.38;;;6.40;99.90;;;;;;5069068;28;20467;-84
2023/04/12 09:05:14;;;;;;;203.07;24.60;;;6.50;99.90;;;;;;5070743;28;20431;-84
2023/04/12 09:07:40;;;;;;;123.82;20.98;;;6.60;99.90;;;;;;5057325;28;20029;-84
2023/04/12 09:10:07;;;;;;;153.27;22.35;;;6.60;99.90;;;;;;5068683;28;20028;-84
2023/04/12 09:12:46;;;;;;;32.10;15.15;;;6.60;99.90;;;;;;5058832;28;20426;-84
2023/04/12 09:15:14;;;;;;;28.40;15.23;;;6.60;99.90;;;;;;5049002;28;20029;-86
2023/04/12 09:17:41;;;;;;;45.63;16.55;;;6.60;99.90;;;;;;5073479;28;20025;-86
2023/04/12 09:20:16;;;;;;;27.77;14.02;;;6.60;99.90;;;;;;5062275;28;20083;-83
2023/04/12 09:22:45;;;;;;;26.05;14.82;;;6.60;99.90;;;;;;5096442;28;20568;-86
2023/04/12 09:25:14;;;;;;;31.50;16.63;;;6.70;99.90;;;;;;5075392;28;20036;-85
2023/04/12 09:27:51;;;;;;;26.65;15.85;;;6.80;99.90;;;;;;5073947;28;20038;-86
2023/04/12 09:30:18;;;;;;;31.13;14.93;;;6.90;99.90;;;;;;5082413;28;20456;-86
2023/04/12 09:32:44;;;;;;;26.88;16.27;;;7.00;99.90;;;;;;5074779;28;20032;-84
2023/04/12 09:35:10;;;;;;;32.13;16.40;;;7.20;99.90;;;;;;5062502;28;20024;-84
2023/04/12 09:37:36;;;;;;;25.20;14.55;;;7.20;99.90;;;;;;5058175;28;20068;-86
2023/04/12 09:40:04;;;;;;;25.10;14.05;;;7.30;99.90;;;;;;5073963;28;20111;-86
2023/04/12 09:42:34;;;;;;;28.42;14.02;;;7.30;99.90;;;;;;5056315;28;20063;-86
2023/04/12 09:45:18;;;;;;;26.05;12.63;;;7.30;99.90;;;;;;5081504;28;20391;-83
2023/04/12 09:47:44;;;;;;;70.68;14.57;;;7.30;99.90;;;;;;5057234;28;20384;-84
2023/04/12 09:50:28;;;;;;;27.45;13.85;;;7.20;99.90;;;;;;5066358;28;20017;-84
2023/04/12 09:52:55;;;;;;;31.30;15.30;;;7.20;99.90;;;;;;5065641;28;20025;-84
2023/04/12 09:55:24;;;;;;;28.77;12.93;;;7.30;99.90;;;;;;5066550;28;20691;-83
2023/04/12 09:57:51;;;;;;;17.73;10.93;;;7.20;99.90;;;;;;5087912;28;20032;-84
2023/04/12 10:00:18;;;;;;;21.45;12.30;;;7.20;99.90;;;;;;5071744;28;20084;-84
2023/04/12 10:02:48;;;;;;;29.17;11.95;;;7.20;99.90;;;;;;5056155;28;20068;-84
2023/04/12 10:05:16;;;;;;;21.52;11.73;;;7.30;99.90;;;;;;5051065;28;20071;-84
2023/04/12 10:07:43;;;;;;;17.10;10.65;;;7.40;99.90;;;;;;5069525;28;20031;-84
2023/04/12 10:10:17;;;;;;;15.65;10.90;;;7.40;99.90;;;;;;5057220;28;20029;-84
2023/04/12 10:12:44;;;;;;;20.88;10.70;;;7.40;99.90;;;;;;5078999;28;20349;-85
2023/04/12 10:15:12;;;;;;;20.13;11.32;;;7.60;99.90;;;;;;5053122;28;20081;-84
2023/04/12 10:17:44;;;;;;;24.65;13.48;;;7.60;99.90;;;;;;5054682;28;20033;-84
2023/04/12 10:20:11;;;;;;;22.33;12.75;;;7.50;99.90;;;;;;5071724;28;20115;-84
2023/04/12 10:22:41;;;;;;;20.25;10.95;;;7.60;99.90;;;;;;5054938;28;20475;-84
2023/04/12 10:25:18;;;;;;;22.83;10.63;;;7.60;99.90;;;;;;5056035;28;20028;-84
2023/04/12 10:27:45;;;;;;;16.35;10.70;;;7.60;99.90;;;;;;5071260;28;20052;-84
2023/04/12 10:30:27;;;;;;;16.55;10.65;;;7.60;99.90;;;;;;5054365;28;20033;-84
2023/04/12 10:33:15;;;;;;;18.20;9.82;;;7.60;99.90;;;;;;5055360;28;20438;-83
2023/04/12 10:36:07;;;;;;;19.90;10.77;;;7.70;99.90;;;;;;5049772;28;20039;-84
2023/04/12 10:38:47;;;;;;;20.00;10.38;;;7.80;99.90;;;;;;5056888;28;20031;-84
2023/04/12 10:41:16;;;;;;;15.80;10.85;;;7.80;99.90;;;;;;5071837;28;20032;-84
2023/04/12 10:43:44;;;;;;;18.92;11.80;;;7.80;99.90;;;;;;5089037;28;20028;-85
2023/04/12 10:46:44;;;;;;;18.15;10.45;;;7.80;99.90;;;;;;5070834;28;20051;-84
2023/04/12 10:49:14;;;;;;;21.52;10.48;;;7.80;99.90;;;;;;5054701;28;20089;-84
2023/04/12 10:52:02;;;;;;;19.35;11.13;;;7.90;99.90;;;;;;5071870;28;20021;-85
2023/04/12 10:54:31;;;;;;;16.85;10.98;;;8.00;99.90;;;;;;5070304;28;20055;-85
2023/04/12 10:56:56;;;;;;;18.02;10.27;;;8.00;99.90;;;;;;5054953;28;20798;-85
2023/04/12 10:59:51;;;;;;;18.55;10.63;;;8.00;99.90;;;;;;5056175;28;20287;-84
2023/04/12 11:02:17;;;;;;;18.52;11.23;;;7.90;99.90;;;;;;5055437;28;20127;-84
2023/04/12 11:05:08;;;;;;;19.70;10.75;;;8.00;99.90;;;;;;5059780;28;20028;-85
2023/04/12 11:07:58;;;;;;;22.92;10.82;;;8.00;99.90;;;;;;5057390;28;20115;-85
2023/04/12 11:10:49;;;;;;;15.77;9.95;;;8.00;99.90;;;;;;5088405;28;20107;-84
2023/04/12 11:13:27;;;;;;;20.77;10.68;;;8.00;99.90;;;;;;5072188;28;20051;-84
2023/04/12 11:16:00;;;;;;;23.48;10.80;;;8.00;99.90;;;;;;5072503;28;20060;-85
2023/04/12 11:18:26;;;;;;;19.75;11.43;;;8.10;99.90;;;;;;5074206;28;20024;-85
2023/04/12 11:20:52;;;;;;;18.95;10.85;;;8.10;99.90;;;;;;5068275;28;20055;-85
2023/04/12 11:23:18;;;;;;;23.65;11.43;;;8.10;99.90;;;;;;5071310;28;20399;-85
2023/04/12 11:25:52;;;;;;;21.85;11.93;;;8.10;99.90;;;;;;5071466;28;20025;-85
2023/04/12 11:28:18;;;;;;;24.10;11.50;;;8.20;99.90;;;;;;5071474;28;20055;-84
2023/04/12 11:30:56;;;;;;;22.33;12.10;;;8.20;99.90;;;;;;5057259;28;20427;-84
2023/04/12 11:33:35;;;;;;;24.27;12.52;;;8.20;99.90;;;;;;5058430;28;20078;-84
2023/04/12 11:36:06;;;;;;;26.10;13.25;;;8.30;99.90;;;;;;5058529;28;20162;-83
2023/04/12 11:38:34;;;;;;;23.02;12.48;;;8.40;99.90;;;;;;5058810;28;20029;-84
2023/04/12 11:41:05;;;;;;;22.73;11.93;;;8.50;99.90;;;;;;5075710;28;20036;-85
2023/04/12 11:43:33;;;;;;;24.77;13.38;;;8.50;99.90;;;;;;5058905;28;20036;-85
2023/04/12 11:45:59;;;;;;;19.02;10.93;;;8.50;99.90;;;;;;5068818;28;20048;-85
2023/04/12 11:48:26;;;;;;;22.25;11.57;;;8.50;99.90;;;;;;5079081;28;20506;-84
2023/04/12 11:50:52;;;;;;;25.55;12.13;;;8.40;99.90;;;;;;5078098;28;20024;-85
2023/04/12 11:53:19;;;;;;;43.65;14.38;;;8.60;99.90;;;;;;5058807;28;20021;-85
2023/04/12 11:55:49;;;;;;;21.23;11.38;;;8.50;99.90;;;;;;5058990;28;20070;-85
2023/04/12 11:58:16;;;;;;;20.20;11.82;;;8.50;99.90;;;;;;5056012;28;20501;-85
2023/04/12 12:00:44;;;;;;;24.27;14.10;;;8.60;99.90;;;;;;5076600;28;20031;-85
2023/04/12 12:03:11;;;;;;;18.15;11.70;;;8.70;99.90;;;;;;5059282;28;20035;-85
2023/04/12 12:05:38;;;;;;;21.88;11.63;;;8.70;99.90;;;;;;5059814;28;20025;-86
2023/04/12 12:08:06;;;;;;;24.98;11.52;;;8.80;99.90;;;;;;5059321;28;20120;-86
2023/04/12 12:10:36;;;;;;;22.02;11.35;;;8.80;99.90;;;;;;5059105;28;20020;-86
2023/04/12 12:13:07;;;;;;;18.93;9.37;;;8.90;99.90;;;;;;5059168;28;20086;-85
2023/04/12 12:15:33;;;;;;;22.42;10.63;;;9.00;99.90;;;;;;5059026;28;20274;-84
2023/04/12 12:18:01;;;;;;;21.10;11.13;;;9.10;99.90;;;;;;5058140;28;20490;-84
2023/04/12 12:20:26;;;;;;;34.92;16.23;;;9.10;99.90;;;;;;5076775;28;20043;-84
2023/04/12 12:22:52;;;;;;;19.13;11.40;;;9.20;99.90;;;;;;5058562;28;20024;-85
2023/04/12 12:25:18;;;;;;;16.40;8.38;;;9.20;99.90;;;;;;5058166;28;20032;-84
2023/04/12 12:27:47;;;;;;;14.30;6.97;;;9.30;99.90;;;;;;5075597;28;20041;-85
2023/04/12 12:30:16;;;;;;;14.38;7.45;;;9.30;99.90;;;;;;5058239;28;20033;-85
2023/04/12 12:32:43;;;;;;;15.43;6.75;;;9.30;99.90;;;;;;5058956;28;20032;-85
2023/04/12 12:35:11;;;;;;;10.15;6.03;;;9.40;99.90;;;;;;5059250;28;20013;-85
2023/04/12 12:37:37;;;;;;;10.35;5.22;;;9.70;99.90;;;;;;5059205;28;20029;-86
2023/04/12 12:40:12;;;;;;;14.27;5.28;;;9.80;99.90;;;;;;5058927;28;20039;-85
2023/04/12 12:42:56;;;;;;;8.43;3.85;;;9.90;99.90;;;;;;5075020;28;20031;-85
2023/04/12 12:45:27;;;;;;;8.90;4.63;;;9.90;99.90;;;;;;5074469;28;20040;-84
2023/04/12 12:47:57;;;;;;;8.98;3.65;;;10.00;99.90;;;;;;5058251;28;20388;-85